Etusivu
METAR-TAF:

METAR-TAF

Lentoasemat :

Regional_Airport

Clinton, Oklahoma, Yhdysvallat

Leveyspiiri: 35-32-17N, Pituuspiiri: 098-55-17W, korkeus merenpinnasta: 492 m

Tämänhetkinen sää

Tämä raportti tehtiin 7 minuuttia sitten, kello 00.35 UTC
Tuuli 23 kn etelästä puuskistuen 27 kn:hen
Lämpötila 27°C
Kosteus 51%
Ilmanpaine 1000 hPa
Näkyvyys: 16.1 km
selkeää

METAR: KCLK 090035Z AUTO 17023G27KT 10SM CLR 27/16 A2953 RMK AO2

Aika: 19:42 (00:42 UTC)


TAF: puuttuu

Säähavainnot ja -ennusteet yli 4000 lentoasemalta (METAR- ja TAF-raportit).

Käytössä olevat sääasemat on merkitty karttaan keltaisilla ja punaisilla pisteillä.

Aseta hiiri pisteen päälle nähdäksesi sääaseman nimen.

Klikkaa sitten nähdäksesi säähavainnot ja -ennusteet.

Kartan vaihtaminen: klikkaa mustalla rastilla varustettuja vihreitä pisteitä, niin voit zoomata sisään; viivalla varustettua vihreää pistettä, niin voit zoomata ulos tai vihreitä nuolia, niin pääset viereisille kartoille.


METAR-TAF: